sensor_id;sensor_type;location;lat;lon;timestamp;temperature;humidity
1686;DHT22;840;47.980;7.830;2023-05-25T00:01:38;13.60;99.90
1686;DHT22;840;47.980;7.830;2023-05-25T00:04:09;13.60;99.90
1686;DHT22;840;47.980;7.830;2023-05-25T00:06:36;13.60;99.90
1686;DHT22;840;47.980;7.830;2023-05-25T00:09:05;13.60;99.90
1686;DHT22;840;47.980;7.830;2023-05-25T00:11:33;13.60;99.90
1686;DHT22;840;47.980;7.830;2023-05-25T00:14:00;13.70;99.90
1686;DHT22;840;47.980;7.830;2023-05-25T00:16:27;13.70;99.90
1686;DHT22;840;47.980;7.830;2023-05-25T00:18:56;13.70;99.90
1686;DHT22;840;47.980;7.830;2023-05-25T00:21:22;13.80;99.90
1686;DHT22;840;47.980;7.830;2023-05-25T00:23:50;13.80;99.90
1686;DHT22;840;47.980;7.830;2023-05-25T00:26:16;13.90;99.90
1686;DHT22;840;47.980;7.830;2023-05-25T00:28:45;13.90;99.90
1686;DHT22;840;47.980;7.830;2023-05-25T00:31:12;13.90;99.90
1686;DHT22;840;47.980;7.830;2023-05-25T00:33:38;13.90;99.90
1686;DHT22;840;47.980;7.830;2023-05-25T00:36:06;13.90;99.90
1686;DHT22;840;47.980;7.830;2023-05-25T00:38:33;13.90;99.90
1686;DHT22;840;47.980;7.830;2023-05-25T00:41:00;13.90;99.90
1686;DHT22;840;47.980;7.830;2023-05-25T00:43:27;13.90;99.90
1686;DHT22;840;47.980;7.830;2023-05-25T00:45:55;13.80;99.90
1686;DHT22;840;47.980;7.830;2023-05-25T00:48:23;13.90;99.90
1686;DHT22;840;47.980;7.830;2023-05-25T00:50:53;13.90;99.90
1686;DHT22;840;47.980;7.830;2023-05-25T00:53:22;13.90;99.90
1686;DHT22;840;47.980;7.830;2023-05-25T00:55:54;13.80;99.90
1686;DHT22;840;47.980;7.830;2023-05-25T00:58:26;13.80;99.90
1686;DHT22;840;47.980;7.830;2023-05-25T01:00:56;13.70;99.90
1686;DHT22;840;47.980;7.830;2023-05-25T01:03:37;13.50;99.90
1686;DHT22;840;47.980;7.830;2023-05-25T01:06:10;13.40;99.90
1686;DHT22;840;47.980;7.830;2023-05-25T01:08:39;13.30;99.90
1686;DHT22;840;47.980;7.830;2023-05-25T01:11:11;13.20;99.90
1686;DHT22;840;47.980;7.830;2023-05-25T01:13:41;13.20;99.90
1686;DHT22;840;47.980;7.830;2023-05-25T01:16:10;13.20;99.90
1686;DHT22;840;47.980;7.830;2023-05-25T01:18:37;13.20;99.90
1686;DHT22;840;47.980;7.830;2023-05-25T01:21:11;13.20;99.90
1686;DHT22;840;47.980;7.830;2023-05-25T01:23:47;13.20;99.90
1686;DHT22;840;47.980;7.830;2023-05-25T01:26:17;13.20;99.90
1686;DHT22;840;47.980;7.830;2023-05-25T01:28:49;13.10;99.90
1686;DHT22;840;47.980;7.830;2023-05-25T01:31:19;13.10;99.90
1686;DHT22;840;47.980;7.830;2023-05-25T01:33:49;13.00;99.90
1686;DHT22;840;47.980;7.830;2023-05-25T01:36:17;12.90;99.90
1686;DHT22;840;47.980;7.830;2023-05-25T01:38:44;12.90;99.90
1686;DHT22;840;47.980;7.830;2023-05-25T01:41:11;12.90;99.90
1686;DHT22;840;47.980;7.830;2023-05-25T01:43:38;12.90;99.90
1686;DHT22;840;47.980;7.830;2023-05-25T01:46:11;12.90;99.90
1686;DHT22;840;47.980;7.830;2023-05-25T01:48:48;13.00;99.90
1686;DHT22;840;47.980;7.830;2023-05-25T01:51:25;13.00;99.90
1686;DHT22;840;47.980;7.830;2023-05-25T01:54:00;13.10;99.90
1686;DHT22;840;47.980;7.830;2023-05-25T01:56:29;13.20;99.90
1686;DHT22;840;47.980;7.830;2023-05-25T01:59:00;13.20;99.90
1686;DHT22;840;47.980;7.830;2023-05-25T02:01:28;13.20;99.90
1686;DHT22;840;47.980;7.830;2023-05-25T02:03:57;13.30;99.90
1686;DHT22;840;47.980;7.830;2023-05-25T02:06:26;13.30;99.90
1686;DHT22;840;47.980;7.830;2023-05-25T02:08:52;13.40;99.90
1686;DHT22;840;47.980;7.830;2023-05-25T02:11:19;13.40;99.90
1686;DHT22;840;47.980;7.830;2023-05-25T02:13:46;13.40;99.90
1686;DHT22;840;47.980;7.830;2023-05-25T02:16:12;13.40;99.90
1686;DHT22;840;47.980;7.830;2023-05-25T02:18:39;13.40;99.90
1686;DHT22;840;47.980;7.830;2023-05-25T02:21:11;13.40;99.90
1686;DHT22;840;47.980;7.830;2023-05-25T02:23:39;13.30;99.90
1686;DHT22;840;47.980;7.830;2023-05-25T02:26:06;13.30;99.90
1686;DHT22;840;47.980;7.830;2023-05-25T02:28:33;13.30;99.90
1686;DHT22;840;47.980;7.830;2023-05-25T02:31:00;13.30;99.90
1686;DHT22;840;47.980;7.830;2023-05-25T02:33:27;13.20;99.90
1686;DHT22;840;47.980;7.830;2023-05-25T02:35:54;13.20;99.90
1686;DHT22;840;47.980;7.830;2023-05-25T02:38:21;13.00;99.90
1686;DHT22;840;47.980;7.830;2023-05-25T02:40:49;12.90;99.90
1686;DHT22;840;47.980;7.830;2023-05-25T02:43:15;12.80;99.90
1686;DHT22;840;47.980;7.830;2023-05-25T02:45:43;12.70;99.90
1686;DHT22;840;47.980;7.830;2023-05-25T02:48:10;12.70;99.90
1686;DHT22;840;47.980;7.830;2023-05-25T02:50:37;12.60;99.90
1686;DHT22;840;47.980;7.830;2023-05-25T02:53:04;12.60;99.90
1686;DHT22;840;47.980;7.830;2023-05-25T02:55:31;12.60;99.90
1686;DHT22;840;47.980;7.830;2023-05-25T02:57:59;12.60;99.90
1686;DHT22;840;47.980;7.830;2023-05-25T03:00:26;12.50;99.90
1686;DHT22;840;47.980;7.830;2023-05-25T03:02:53;12.40;99.90
1686;DHT22;840;47.980;7.830;2023-05-25T03:05:20;12.30;99.90
1686;DHT22;840;47.980;7.830;2023-05-25T03:07:47;12.20;99.90
1686;DHT22;840;47.980;7.830;2023-05-25T03:10:13;12.10;99.90
1686;DHT22;840;47.980;7.830;2023-05-25T03:12:40;12.10;99.90
1686;DHT22;840;47.980;7.830;2023-05-25T03:15:09;12.00;99.90
1686;DHT22;840;47.980;7.830;2023-05-25T03:17:37;12.00;99.90
1686;DHT22;840;47.980;7.830;2023-05-25T03:20:05;12.00;99.90
1686;DHT22;840;47.980;7.830;2023-05-25T03:22:34;11.90;99.90
1686;DHT22;840;47.980;7.830;2023-05-25T03:25:01;12.00;99.90
1686;DHT22;840;47.980;7.830;2023-05-25T03:27:28;12.00;99.90
1686;DHT22;840;47.980;7.830;2023-05-25T03:29:55;12.00;99.90
1686;DHT22;840;47.980;7.830;2023-05-25T03:32:23;12.10;99.90
1686;DHT22;840;47.980;7.830;2023-05-25T03:34:50;12.10;99.90
1686;DHT22;840;47.980;7.830;2023-05-25T03:37:17;12.20;99.90
1686;DHT22;840;47.980;7.830;2023-05-25T03:39:44;12.10;99.90
1686;DHT22;840;47.980;7.830;2023-05-25T03:42:11;12.20;99.90
1686;DHT22;840;47.980;7.830;2023-05-25T03:44:38;12.20;99.90
1686;DHT22;840;47.980;7.830;2023-05-25T03:47:05;12.20;99.90
1686;DHT22;840;47.980;7.830;2023-05-25T03:49:33;12.20;99.90
1686;DHT22;840;47.980;7.830;2023-05-25T03:52:00;12.20;99.90
1686;DHT22;840;47.980;7.830;2023-05-25T03:54:27;12.20;99.90
1686;DHT22;840;47.980;7.830;2023-05-25T03:56:54;12.10;99.90
1686;DHT22;840;47.980;7.830;2023-05-25T03:59:21;12.20;99.90
1686;DHT22;840;47.980;7.830;2023-05-25T04:01:48;12.30;99.90
1686;DHT22;840;47.980;7.830;2023-05-25T04:04:14;12.30;99.90
1686;DHT22;840;47.980;7.830;2023-05-25T04:06:43;12.40;99.90
1686;DHT22;840;47.980;7.830;2023-05-25T04:09:10;12.50;99.90
1686;DHT22;840;47.980;7.830;2023-05-25T04:11:37;12.60;99.90
1686;DHT22;840;47.980;7.830;2023-05-25T04:14:03;12.70;99.90
1686;DHT22;840;47.980;7.830;2023-05-25T04:16:30;12.60;99.90
1686;DHT22;840;47.980;7.830;2023-05-25T04:18:57;12.40;99.90
1686;DHT22;840;47.980;7.830;2023-05-25T04:21:25;12.30;99.90
1686;DHT22;840;47.980;7.830;2023-05-25T04:23:53;12.40;99.90
1686;DHT22;840;47.980;7.830;2023-05-25T04:26:20;12.40;99.90
1686;DHT22;840;47.980;7.830;2023-05-25T04:28:49;12.40;99.90
1686;DHT22;840;47.980;7.830;2023-05-25T04:31:16;12.40;99.90
1686;DHT22;840;47.980;7.830;2023-05-25T04:33:43;12.50;99.90
1686;DHT22;840;47.980;7.830;2023-05-25T04:36:09;12.40;99.90
1686;DHT22;840;47.980;7.830;2023-05-25T04:38:38;12.30;99.90
1686;DHT22;840;47.980;7.830;2023-05-25T04:41:07;12.10;99.90
1686;DHT22;840;47.980;7.830;2023-05-25T04:43:33;12.10;99.90
1686;DHT22;840;47.980;7.830;2023-05-25T04:46:00;12.00;99.90
1686;DHT22;840;47.980;7.830;2023-05-25T04:48:29;12.10;99.90
1686;DHT22;840;47.980;7.830;2023-05-25T04:50:57;12.10;99.90
1686;DHT22;840;47.980;7.830;2023-05-25T04:53:27;12.10;99.90
1686;DHT22;840;47.980;7.830;2023-05-25T04:55:54;12.10;99.90
1686;DHT22;840;47.980;7.830;2023-05-25T04:58:23;12.00;99.90
1686;DHT22;840;47.980;7.830;2023-05-25T05:00:50;12.00;99.90
1686;DHT22;840;47.980;7.830;2023-05-25T05:03:18;12.00;99.90
1686;DHT22;840;47.980;7.830;2023-05-25T05:05:45;11.90;99.90
1686;DHT22;840;47.980;7.830;2023-05-25T05:08:12;11.90;99.90
1686;DHT22;840;47.980;7.830;2023-05-25T05:10:38;11.90;99.90
1686;DHT22;840;47.980;7.830;2023-05-25T05:13:05;11.90;99.90
1686;DHT22;840;47.980;7.830;2023-05-25T05:15:33;11.90;99.90
1686;DHT22;840;47.980;7.830;2023-05-25T05:18:00;12.00;99.90
1686;DHT22;840;47.980;7.830;2023-05-25T05:20:28;12.20;99.90
1686;DHT22;840;47.980;7.830;2023-05-25T05:22:55;12.30;99.90
1686;DHT22;840;47.980;7.830;2023-05-25T05:25:22;12.30;99.90
1686;DHT22;840;47.980;7.830;2023-05-25T05:27:49;12.40;99.90
1686;DHT22;840;47.980;7.830;2023-05-25T05:30:16;12.30;99.90
1686;DHT22;840;47.980;7.830;2023-05-25T05:32:44;12.20;99.90
1686;DHT22;840;47.980;7.830;2023-05-25T05:35:11;12.20;99.90
1686;DHT22;840;47.980;7.830;2023-05-25T05:37:38;12.20;99.90
1686;DHT22;840;47.980;7.830;2023-05-25T05:40:06;12.10;99.90
1686;DHT22;840;47.980;7.830;2023-05-25T05:42:33;12.10;99.90
1686;DHT22;840;47.980;7.830;2023-05-25T05:44:59;12.10;99.90
1686;DHT22;840;47.980;7.830;2023-05-25T05:47:26;12.10;99.90
1686;DHT22;840;47.980;7.830;2023-05-25T05:49:55;12.10;99.90
1686;DHT22;840;47.980;7.830;2023-05-25T05:52:21;12.10;99.90
1686;DHT22;840;47.980;7.830;2023-05-25T05:54:48;12.20;99.90
1686;DHT22;840;47.980;7.830;2023-05-25T05:57:15;12.30;99.90
1686;DHT22;840;47.980;7.830;2023-05-25T05:59:42;12.30;99.90
1686;DHT22;840;47.980;7.830;2023-05-25T06:02:08;12.40;99.90
1686;DHT22;840;47.980;7.830;2023-05-25T06:04:35;12.40;99.90
1686;DHT22;840;47.980;7.830;2023-05-25T06:07:04;12.30;99.90
1686;DHT22;840;47.980;7.830;2023-05-25T06:09:31;12.20;99.90
1686;DHT22;840;47.980;7.830;2023-05-25T06:11:58;12.10;99.90
1686;DHT22;840;47.980;7.830;2023-05-25T06:14:25;12.20;99.90
1686;DHT22;840;47.980;7.830;2023-05-25T06:16:52;12.20;99.90
1686;DHT22;840;47.980;7.830;2023-05-25T06:19:19;12.30;99.90
1686;DHT22;840;47.980;7.830;2023-05-25T06:21:46;12.30;99.90
1686;DHT22;840;47.980;7.830;2023-05-25T06:24:15;12.30;99.90
1686;DHT22;840;47.980;7.830;2023-05-25T06:26:41;12.40;99.90
1686;DHT22;840;47.980;7.830;2023-05-25T06:29:08;12.50;99.90
1686;DHT22;840;47.980;7.830;2023-05-25T06:31:35;12.60;99.90
1686;DHT22;840;47.980;7.830;2023-05-25T06:34:02;12.60;99.90
1686;DHT22;840;47.980;7.830;2023-05-25T06:36:28;12.70;99.90
1686;DHT22;840;47.980;7.830;2023-05-25T06:38:57;12.90;99.90
1686;DHT22;840;47.980;7.830;2023-05-25T06:41:25;13.00;99.90
1686;DHT22;840;47.980;7.830;2023-05-25T06:43:52;13.10;99.90
1686;DHT22;840;47.980;7.830;2023-05-25T06:46:19;13.10;99.90
1686;DHT22;840;47.980;7.830;2023-05-25T06:48:46;13.10;99.90
1686;DHT22;840;47.980;7.830;2023-05-25T06:51:13;13.20;99.90
1686;DHT22;840;47.980;7.830;2023-05-25T06:53:40;13.20;99.90
1686;DHT22;840;47.980;7.830;2023-05-25T06:56:06;13.20;99.90
1686;DHT22;840;47.980;7.830;2023-05-25T06:58:34;13.20;99.90
1686;DHT22;840;47.980;7.830;2023-05-25T07:01:02;13.20;99.90
1686;DHT22;840;47.980;7.830;2023-05-25T07:03:28;13.30;99.90
1686;DHT22;840;47.980;7.830;2023-05-25T07:05:57;13.40;99.90
1686;DHT22;840;47.980;7.830;2023-05-25T07:08:24;13.40;99.90
1686;DHT22;840;47.980;7.830;2023-05-25T07:10:50;13.40;99.90
1686;DHT22;840;47.980;7.830;2023-05-25T07:13:17;13.50;99.90
1686;DHT22;840;47.980;7.830;2023-05-25T07:15:45;13.60;99.90
1686;DHT22;840;47.980;7.830;2023-05-25T07:18:12;13.70;99.90
1686;DHT22;840;47.980;7.830;2023-05-25T07:20:39;13.80;99.90
1686;DHT22;840;47.980;7.830;2023-05-25T07:23:08;13.80;99.90
1686;DHT22;840;47.980;7.830;2023-05-25T07:25:35;13.80;99.90
1686;DHT22;840;47.980;7.830;2023-05-25T07:28:01;13.90;99.90
1686;DHT22;840;47.980;7.830;2023-05-25T07:30:28;13.90;99.90
1686;DHT22;840;47.980;7.830;2023-05-25T07:32:57;14.00;99.90
1686;DHT22;840;47.980;7.830;2023-05-25T07:35:23;14.00;99.90
1686;DHT22;840;47.980;7.830;2023-05-25T07:37:57;14.20;99.90
1686;DHT22;840;47.980;7.830;2023-05-25T07:40:24;14.30;99.90
1686;DHT22;840;47.980;7.830;2023-05-25T07:42:51;14.40;99.90
1686;DHT22;840;47.980;7.830;2023-05-25T07:45:18;14.50;99.90
1686;DHT22;840;47.980;7.830;2023-05-25T07:47:45;14.50;99.90
1686;DHT22;840;47.980;7.830;2023-05-25T07:50:14;14.50;99.90
1686;DHT22;840;47.980;7.830;2023-05-25T07:52:40;14.60;99.90
1686;DHT22;840;47.980;7.830;2023-05-25T07:55:08;14.60;99.90
1686;DHT22;840;47.980;7.830;2023-05-25T07:57:35;14.70;99.90
1686;DHT22;840;47.980;7.830;2023-05-25T08:00:03;14.60;99.90
1686;DHT22;840;47.980;7.830;2023-05-25T08:02:31;14.80;99.90
1686;DHT22;840;47.980;7.830;2023-05-25T08:04:57;14.90;99.90
1686;DHT22;840;47.980;7.830;2023-05-25T08:07:31;15.10;99.90
1686;DHT22;840;47.980;7.830;2023-05-25T08:09:57;15.30;99.90
1686;DHT22;840;47.980;7.830;2023-05-25T08:12:24;15.50;99.90
1686;DHT22;840;47.980;7.830;2023-05-25T08:14:52;15.70;99.90
1686;DHT22;840;47.980;7.830;2023-05-25T08:17:19;15.70;99.90
1686;DHT22;840;47.980;7.830;2023-05-25T08:19:46;15.80;99.90
1686;DHT22;840;47.980;7.830;2023-05-25T08:22:13;15.90;99.90
1686;DHT22;840;47.980;7.830;2023-05-25T08:24:42;15.90;99.90
1686;DHT22;840;47.980;7.830;2023-05-25T08:27:08;15.90;99.90
1686;DHT22;840;47.980;7.830;2023-05-25T08:29:35;15.90;99.90
1686;DHT22;840;47.980;7.830;2023-05-25T08:32:02;15.90;99.90
1686;DHT22;840;47.980;7.830;2023-05-25T08:34:29;16.00;99.90
1686;DHT22;840;47.980;7.830;2023-05-25T08:36:56;16.10;99.90
1686;DHT22;840;47.980;7.830;2023-05-25T08:39:23;16.20;99.90
1686;DHT22;840;47.980;7.830;2023-05-25T08:41:51;16.40;99.90
1686;DHT22;840;47.980;7.830;2023-05-25T08:44:20;16.40;99.90
1686;DHT22;840;47.980;7.830;2023-05-25T08:46:47;16.50;99.90
1686;DHT22;840;47.980;7.830;2023-05-25T08:49:14;16.40;99.90
1686;DHT22;840;47.980;7.830;2023-05-25T08:51:46;16.50;99.90
1686;DHT22;840;47.980;7.830;2023-05-25T08:54:16;16.50;99.90
1686;DHT22;840;47.980;7.830;2023-05-25T08:56:48;16.50;99.90
1686;DHT22;840;47.980;7.830;2023-05-25T08:59:26;16.60;99.90
1686;DHT22;840;47.980;7.830;2023-05-25T09:01:59;16.70;99.90
1686;DHT22;840;47.980;7.830;2023-05-25T09:04:28;16.80;99.90
1686;DHT22;840;47.980;7.830;2023-05-25T09:06:55;16.90;99.90
1686;DHT22;840;47.980;7.830;2023-05-25T09:09:23;17.10;99.90
1686;DHT22;840;47.980;7.830;2023-05-25T09:11:50;17.30;99.90
1686;DHT22;840;47.980;7.830;2023-05-25T09:14:19;17.50;99.90
1686;DHT22;840;47.980;7.830;2023-05-25T09:16:47;17.60;99.90
1686;DHT22;840;47.980;7.830;2023-05-25T09:19:14;17.80;99.90
1686;DHT22;840;47.980;7.830;2023-05-25T09:21:41;18.10;99.90
1686;DHT22;840;47.980;7.830;2023-05-25T09:24:08;18.40;99.90
1686;DHT22;840;47.980;7.830;2023-05-25T09:26:36;18.60;99.90
1686;DHT22;840;47.980;7.830;2023-05-25T09:29:03;18.80;99.90
1686;DHT22;840;47.980;7.830;2023-05-25T09:31:31;19.00;99.90
1686;DHT22;840;47.980;7.830;2023-05-25T09:33:58;19.20;99.90
1686;DHT22;840;47.980;7.830;2023-05-25T09:36:25;19.30;99.90
1686;DHT22;840;47.980;7.830;2023-05-25T09:38:52;19.50;99.90
1686;DHT22;840;47.980;7.830;2023-05-25T09:41:20;19.50;99.90
1686;DHT22;840;47.980;7.830;2023-05-25T09:43:47;19.50;99.90
1686;DHT22;840;47.980;7.830;2023-05-25T09:46:14;19.30;99.90
1686;DHT22;840;47.980;7.830;2023-05-25T09:48:43;19.30;99.90
1686;DHT22;840;47.980;7.830;2023-05-25T09:51:11;19.30;99.90
1686;DHT22;840;47.980;7.830;2023-05-25T09:53:37;19.30;99.90
1686;DHT22;840;47.980;7.830;2023-05-25T09:56:04;19.40;99.90
1686;DHT22;840;47.980;7.830;2023-05-25T09:58:31;19.40;99.90
1686;DHT22;840;47.980;7.830;2023-05-25T10:00:58;19.50;99.90
1686;DHT22;840;47.980;7.830;2023-05-25T10:03:25;19.50;99.90
1686;DHT22;840;47.980;7.830;2023-05-25T10:05:54;19.60;99.90
1686;DHT22;840;47.980;7.830;2023-05-25T10:08:21;19.60;99.90
1686;DHT22;840;47.980;7.830;2023-05-25T10:10:49;19.70;99.90
1686;DHT22;840;47.980;7.830;2023-05-25T10:13:20;19.80;99.90
1686;DHT22;840;47.980;7.830;2023-05-25T10:15:51;19.80;99.90
1686;DHT22;840;47.980;7.830;2023-05-25T10:18:21;19.80;99.90
1686;DHT22;840;47.980;7.830;2023-05-25T10:20:56;19.80;99.90
1686;DHT22;840;47.980;7.830;2023-05-25T10:23:27;19.80;99.90
1686;DHT22;840;47.980;7.830;2023-05-25T10:25:57;19.80;99.90
1686;DHT22;840;47.980;7.830;2023-05-25T10:28:28;19.90;99.90
1686;DHT22;840;47.980;7.830;2023-05-25T10:30:56;20.00;99.90
1686;DHT22;840;47.980;7.830;2023-05-25T10:33:23;20.00;99.90
1686;DHT22;840;47.980;7.830;2023-05-25T10:35:54;20.00;99.90
1686;DHT22;840;47.980;7.830;2023-05-25T10:38:21;20.00;99.90
1686;DHT22;840;47.980;7.830;2023-05-25T10:40:52;20.00;99.90
1686;DHT22;840;47.980;7.830;2023-05-25T10:43:21;19.90;99.90
1686;DHT22;840;47.980;7.830;2023-05-25T10:45:48;19.80;99.90
1686;DHT22;840;47.980;7.830;2023-05-25T10:48:15;19.70;99.90
1686;DHT22;840;47.980;7.830;2023-05-25T10:50:48;19.60;99.90
1686;DHT22;840;47.980;7.830;2023-05-25T10:53:19;19.60;99.90
1686;DHT22;840;47.980;7.830;2023-05-25T10:55:59;19.60;99.90
1686;DHT22;840;47.980;7.830;2023-05-25T10:58:28;19.60;99.90
1686;DHT22;840;47.980;7.830;2023-05-25T11:00:59;19.60;99.90
1686;DHT22;840;47.980;7.830;2023-05-25T11:03:55;19.60;99.90
1686;DHT22;840;47.980;7.830;2023-05-25T11:06:28;19.80;99.90
1686;DHT22;840;47.980;7.830;2023-05-25T11:09:24;19.80;99.90
1686;DHT22;840;47.980;7.830;2023-05-25T11:12:02;19.70;99.90
1686;DHT22;840;47.980;7.830;2023-05-25T11:14:30;19.80;99.90
1686;DHT22;840;47.980;7.830;2023-05-25T11:17:04;19.90;99.90
1686;DHT22;840;47.980;7.830;2023-05-25T11:19:38;20.00;99.90
1686;DHT22;840;47.980;7.830;2023-05-25T11:22:14;20.00;99.90
1686;DHT22;840;47.980;7.830;2023-05-25T11:24:43;20.00;99.90
1686;DHT22;840;47.980;7.830;2023-05-25T11:27:11;20.10;99.90
1686;DHT22;840;47.980;7.830;2023-05-25T11:29:38;20.20;99.90
1686;DHT22;840;47.980;7.830;2023-05-25T11:32:11;20.30;99.90
1686;DHT22;840;47.980;7.830;2023-05-25T11:34:38;20.30;99.90
1686;DHT22;840;47.980;7.830;2023-05-25T11:37:06;20.50;99.90
1686;DHT22;840;47.980;7.830;2023-05-25T11:39:34;20.50;99.90
1686;DHT22;840;47.980;7.830;2023-05-25T11:42:05;20.50;99.90
1686;DHT22;840;47.980;7.830;2023-05-25T11:44:34;20.60;99.90
1686;DHT22;840;47.980;7.830;2023-05-25T11:47:04;20.70;99.90
1686;DHT22;840;47.980;7.830;2023-05-25T11:49:33;20.60;99.90
1686;DHT22;840;47.980;7.830;2023-05-25T11:52:04;20.70;99.90
1686;DHT22;840;47.980;7.830;2023-05-25T11:54:32;20.80;99.90
1686;DHT22;840;47.980;7.830;2023-05-25T11:56:59;20.90;99.90
1686;DHT22;840;47.980;7.830;2023-05-25T11:59:27;21.00;99.90
1686;DHT22;840;47.980;7.830;2023-05-25T12:01:55;21.00;99.90
1686;DHT22;840;47.980;7.830;2023-05-25T12:04:22;21.10;99.90
1686;DHT22;840;47.980;7.830;2023-05-25T12:06:49;21.20;99.90
1686;DHT22;840;47.980;7.830;2023-05-25T12:09:18;21.10;99.90
1686;DHT22;840;47.980;7.830;2023-05-25T12:11:46;21.00;99.90
1686;DHT22;840;47.980;7.830;2023-05-25T12:14:13;21.00;99.90
1686;DHT22;840;47.980;7.830;2023-05-25T12:16:41;21.10;99.90
1686;DHT22;840;47.980;7.830;2023-05-25T12:19:09;21.10;99.90
1686;DHT22;840;47.980;7.830;2023-05-25T12:21:37;21.20;99.90
1686;DHT22;840;47.980;7.830;2023-05-25T12:24:04;21.40;99.90
1686;DHT22;840;47.980;7.830;2023-05-25T12:26:31;21.50;99.90
1686;DHT22;840;47.980;7.830;2023-05-25T12:28:59;21.80;99.90
1686;DHT22;840;47.980;7.830;2023-05-25T12:31:27;22.00;99.90
1686;DHT22;840;47.980;7.830;2023-05-25T12:34:10;22.00;99.90
1686;DHT22;840;47.980;7.830;2023-05-25T12:36:38;22.20;99.90
1686;DHT22;840;47.980;7.830;2023-05-25T12:39:05;22.40;99.90
1686;DHT22;840;47.980;7.830;2023-05-25T12:41:44;22.50;99.90
1686;DHT22;840;47.980;7.830;2023-05-25T12:44:16;22.80;99.90
1686;DHT22;840;47.980;7.830;2023-05-25T12:46:43;23.00;99.90
1686;DHT22;840;47.980;7.830;2023-05-25T12:49:26;23.10;99.90
1686;DHT22;840;47.980;7.830;2023-05-25T12:51:54;23.20;99.90
1686;DHT22;840;47.980;7.830;2023-05-25T12:54:36;23.40;99.90
1686;DHT22;840;47.980;7.830;2023-05-25T12:57:06;23.50;99.90
1686;DHT22;840;47.980;7.830;2023-05-25T12:59:34;23.40;99.90
1686;DHT22;840;47.980;7.830;2023-05-25T13:02:02;23.70;99.90
1686;DHT22;840;47.980;7.830;2023-05-25T13:04:31;23.90;99.90
1686;DHT22;840;47.980;7.830;2023-05-25T13:06:58;24.30;99.90
1686;DHT22;840;47.980;7.830;2023-05-25T13:09:26;24.60;99.90
1686;DHT22;840;47.980;7.830;2023-05-25T13:11:53;24.60;99.40
1686;DHT22;840;47.980;7.830;2023-05-25T13:14:20;24.60;98.40
1686;DHT22;840;47.980;7.830;2023-05-25T13:16:48;24.50;99.00
1686;DHT22;840;47.980;7.830;2023-05-25T13:19:15;24.60;98.70
1686;DHT22;840;47.980;7.830;2023-05-25T13:21:44;24.50;98.00
1686;DHT22;840;47.980;7.830;2023-05-25T13:24:12;24.30;98.60
1686;DHT22;840;47.980;7.830;2023-05-25T13:26:39;24.50;98.50
1686;DHT22;840;47.980;7.830;2023-05-25T13:29:06;24.50;98.30
1686;DHT22;840;47.980;7.830;2023-05-25T13:31:32;24.70;98.40
1686;DHT22;840;47.980;7.830;2023-05-25T13:33:59;24.90;98.00
1686;DHT22;840;47.980;7.830;2023-05-25T13:36:27;25.10;98.20
1686;DHT22;840;47.980;7.830;2023-05-25T13:38:55;25.10;97.50
1686;DHT22;840;47.980;7.830;2023-05-25T13:41:23;24.90;97.30
1686;DHT22;840;47.980;7.830;2023-05-25T13:43:51;24.90;97.20
1686;DHT22;840;47.980;7.830;2023-05-25T13:46:17;25.10;97.80
1686;DHT22;840;47.980;7.830;2023-05-25T13:48:44;25.00;96.50
1686;DHT22;840;47.980;7.830;2023-05-25T13:51:13;25.00;97.30
1686;DHT22;840;47.980;7.830;2023-05-25T13:53:41;25.10;97.00
1686;DHT22;840;47.980;7.830;2023-05-25T13:56:09;25.10;96.80
1686;DHT22;840;47.980;7.830;2023-05-25T13:58:36;25.30;96.50
1686;DHT22;840;47.980;7.830;2023-05-25T14:01:03;25.50;96.20
1686;DHT22;840;47.980;7.830;2023-05-25T14:03:30;25.40;96.20
1686;DHT22;840;47.980;7.830;2023-05-25T14:05:57;25.30;96.50
1686;DHT22;840;47.980;7.830;2023-05-25T14:08:24;25.20;96.90
1686;DHT22;840;47.980;7.830;2023-05-25T14:10:53;25.20;95.80
1686;DHT22;840;47.980;7.830;2023-05-25T14:13:21;25.10;96.30
1686;DHT22;840;47.980;7.830;2023-05-25T14:15:48;25.10;96.60
1686;DHT22;840;47.980;7.830;2023-05-25T14:18:15;25.10;96.30
1686;DHT22;840;47.980;7.830;2023-05-25T14:20:42;25.00;96.10
1686;DHT22;840;47.980;7.830;2023-05-25T14:23:08;24.70;96.60
1686;DHT22;840;47.980;7.830;2023-05-25T14:25:35;24.70;96.30
1686;DHT22;840;47.980;7.830;2023-05-25T14:28:02;24.70;96.40
1686;DHT22;840;47.980;7.830;2023-05-25T14:30:30;24.80;96.20
1686;DHT22;840;47.980;7.830;2023-05-25T14:32:57;24.90;96.30
1686;DHT22;840;47.980;7.830;2023-05-25T14:35:24;24.80;96.40
1686;DHT22;840;47.980;7.830;2023-05-25T14:37:51;24.80;96.90
1686;DHT22;840;47.980;7.830;2023-05-25T14:40:17;24.80;96.70
1686;DHT22;840;47.980;7.830;2023-05-25T14:42:46;24.80;96.30
1686;DHT22;840;47.980;7.830;2023-05-25T14:45:13;24.90;96.40
1686;DHT22;840;47.980;7.830;2023-05-25T14:47:42;25.10;96.20
1686;DHT22;840;47.980;7.830;2023-05-25T14:50:08;25.30;96.00
1686;DHT22;840;47.980;7.830;2023-05-25T14:52:35;25.60;95.70
1686;DHT22;840;47.980;7.830;2023-05-25T14:55:02;25.40;95.30
1686;DHT22;840;47.980;7.830;2023-05-25T14:57:29;25.10;95.60
1686;DHT22;840;47.980;7.830;2023-05-25T14:59:56;24.90;96.40
1686;DHT22;840;47.980;7.830;2023-05-25T15:02:23;24.80;96.60
1686;DHT22;840;47.980;7.830;2023-05-25T15:04:51;24.80;97.00
1686;DHT22;840;47.980;7.830;2023-05-25T15:07:19;24.90;96.00
1686;DHT22;840;47.980;7.830;2023-05-25T15:09:46;25.20;96.70
1686;DHT22;840;47.980;7.830;2023-05-25T15:12:13;25.40;95.60
1686;DHT22;840;47.980;7.830;2023-05-25T15:14:40;25.70;96.10
1686;DHT22;840;47.980;7.830;2023-05-25T15:17:07;25.60;94.70
1686;DHT22;840;47.980;7.830;2023-05-25T15:19:34;25.50;95.00
1686;DHT22;840;47.980;7.830;2023-05-25T15:22:03;25.30;94.80
1686;DHT22;840;47.980;7.830;2023-05-25T15:24:29;25.30;94.90
1686;DHT22;840;47.980;7.830;2023-05-25T15:26:56;25.30;94.80
1686;DHT22;840;47.980;7.830;2023-05-25T15:29:23;25.10;95.60
1686;DHT22;840;47.980;7.830;2023-05-25T15:31:50;25.00;95.60
1686;DHT22;840;47.980;7.830;2023-05-25T15:34:18;24.80;96.10
1686;DHT22;840;47.980;7.830;2023-05-25T15:36:44;25.00;96.10
1686;DHT22;840;47.980;7.830;2023-05-25T15:39:12;25.20;95.50
1686;DHT22;840;47.980;7.830;2023-05-25T15:41:40;25.60;96.10
1686;DHT22;840;47.980;7.830;2023-05-25T15:44:06;26.00;94.70
1686;DHT22;840;47.980;7.830;2023-05-25T15:46:37;26.10;94.40
1686;DHT22;840;47.980;7.830;2023-05-25T15:49:04;26.10;94.30
1686;DHT22;840;47.980;7.830;2023-05-25T15:51:36;26.20;94.50
1686;DHT22;840;47.980;7.830;2023-05-25T15:54:03;26.30;92.90
1686;DHT22;840;47.980;7.830;2023-05-25T15:56:31;26.10;93.20
1686;DHT22;840;47.980;7.830;2023-05-25T15:58:58;25.90;93.60
1686;DHT22;840;47.980;7.830;2023-05-25T16:01:25;25.80;93.60
1686;DHT22;840;47.980;7.830;2023-05-25T16:03:51;25.40;93.70
1686;DHT22;840;47.980;7.830;2023-05-25T16:06:18;25.40;94.60
1686;DHT22;840;47.980;7.830;2023-05-25T16:08:45;25.50;94.20
1686;DHT22;840;47.980;7.830;2023-05-25T16:11:11;25.80;94.00
1686;DHT22;840;47.980;7.830;2023-05-25T16:13:39;25.90;93.50
1686;DHT22;840;47.980;7.830;2023-05-25T16:16:07;25.90;93.80
1686;DHT22;840;47.980;7.830;2023-05-25T16:18:34;25.80;93.30
1686;DHT22;840;47.980;7.830;2023-05-25T16:21:01;25.60;93.60
1686;DHT22;840;47.980;7.830;2023-05-25T16:23:28;25.60;93.70